createdAt,value
2022-11-25T00:01:43.895Z,100199.98
2022-11-25T00:03:48.464Z,100193.47
2022-11-25T00:05:52.817Z,100193.66
2022-11-25T00:07:57.366Z,100193.02
2022-11-25T00:10:01.787Z,100193.48
2022-11-25T00:12:06.134Z,100192.7
2022-11-25T00:14:10.522Z,100192.5
2022-11-25T00:16:15.066Z,100194.13
2022-11-25T00:18:19.549Z,100198.22
2022-11-25T00:20:23.934Z,100196.66
2022-11-25T00:22:28.260Z,100195.22
2022-11-25T00:24:32.729Z,100199.56
2022-11-25T00:26:37.443Z,100196.88
2022-11-25T00:28:41.806Z,100198.61
2022-11-25T00:30:46.184Z,100196.3
2022-11-25T00:32:50.627Z,100197.58
2022-11-25T00:34:55.010Z,100200.11
2022-11-25T00:36:59.379Z,100199.63
2022-11-25T00:39:03.741Z,100203.19
2022-11-25T00:41:08.103Z,100204.47
2022-11-25T00:43:12.456Z,100201.38
2022-11-25T00:45:16.803Z,100201.95
2022-11-25T00:47:21.146Z,100203.71
2022-11-25T00:49:25.540Z,100204.18
2022-11-25T00:51:29.914Z,100202.14
2022-11-25T00:53:34.265Z,100199.88
2022-11-25T00:55:38.604Z,100203.33
2022-11-25T00:57:42.943Z,100203.8
2022-11-25T00:59:47.298Z,100205.59
2022-11-25T01:01:51.778Z,100213.12
2022-11-25T01:03:56.250Z,100215.15
2022-11-25T01:06:00.641Z,100213.66
2022-11-25T01:08:04.981Z,100216.33
2022-11-25T01:10:09.369Z,100216.63
2022-11-25T01:12:13.747Z,100220.09
2022-11-25T01:14:18.105Z,100217.09
2022-11-25T01:16:22.589Z,100215.2
2022-11-25T01:18:27.017Z,100217.13
2022-11-25T01:20:31.386Z,100215.3
2022-11-25T01:22:35.778Z,100215.86
2022-11-25T01:24:40.300Z,100212.53
2022-11-25T01:26:44.680Z,100217.23
2022-11-25T01:28:49.012Z,100217.73
2022-11-25T01:30:53.491Z,100219.39
2022-11-25T01:32:57.843Z,100218.47
2022-11-25T01:35:02.189Z,100215.3
2022-11-25T01:37:06.587Z,100216.69
2022-11-25T01:39:10.952Z,100219.66
2022-11-25T01:41:15.322Z,100218.58
2022-11-25T01:43:19.686Z,100218.17
2022-11-25T01:45:29.019Z,100218.91
2022-11-25T01:47:33.449Z,100215
2022-11-25T01:49:37.907Z,100217.2
2022-11-25T01:51:42.334Z,100221.44
2022-11-25T01:53:46.724Z,100217.36
2022-11-25T01:55:51.099Z,100218.17
2022-11-25T01:57:55.492Z,100221.73
2022-11-25T01:59:59.905Z,100214.95
2022-11-25T02:02:04.585Z,100209.91
2022-11-25T02:04:09.099Z,100207.91
2022-11-25T02:06:13.547Z,100206.52
2022-11-25T02:08:17.958Z,100207.14
2022-11-25T02:10:22.393Z,100207.81
2022-11-25T02:12:26.818Z,100212.46
2022-11-25T02:14:31.244Z,100209.27
2022-11-25T02:16:35.915Z,100211.64
2022-11-25T02:18:40.440Z,100208.12
2022-11-25T02:20:44.874Z,100211.33
2022-11-25T02:22:49.299Z,100210.68
2022-11-25T02:24:53.713Z,100215.16
2022-11-25T02:26:58.185Z,100214.57
2022-11-25T02:29:02.636Z,100214.5
2022-11-25T02:31:07.106Z,100218.73
2022-11-25T02:33:11.485Z,100218.66
2022-11-25T02:35:15.845Z,100222.55
2022-11-25T02:37:20.212Z,100222.48
2022-11-25T02:39:24.572Z,100227.2
2022-11-25T02:41:28.919Z,100227.89
2022-11-25T02:43:33.314Z,100227.17
2022-11-25T02:45:37.900Z,100234.41
2022-11-25T02:47:42.355Z,100227.17
2022-11-25T02:49:46.693Z,100224.36
2022-11-25T02:51:51.023Z,100221.09
2022-11-25T02:53:55.399Z,100227.14
2022-11-25T02:55:59.758Z,100225.47
2022-11-25T02:58:04.137Z,100230.47
2022-11-25T03:00:08.607Z,100227.67
2022-11-25T03:02:13.182Z,100234.41
2022-11-25T03:04:17.683Z,100230.8
2022-11-25T03:06:22.050Z,100232.45
2022-11-25T03:08:26.442Z,100228.43
2022-11-25T03:10:30.827Z,100229.27
2022-11-25T03:12:35.189Z,100229.91
2022-11-25T03:14:39.593Z,100229.15
2022-11-25T03:16:44.232Z,100235.64
2022-11-25T03:18:48.757Z,100234.52
2022-11-25T03:20:53.139Z,100237.06
2022-11-25T03:22:57.458Z,100235.11
2022-11-25T03:25:01.829Z,100226.27
2022-11-25T03:27:06.235Z,100228.26
2022-11-25T03:29:10.613Z,100232.05
2022-11-25T03:31:15.275Z,100230.63
2022-11-25T03:33:19.683Z,100233.23
2022-11-25T03:35:24.117Z,100238.06
2022-11-25T03:37:28.591Z,100238.67
2022-11-25T03:39:32.919Z,100236.59
2022-11-25T03:41:37.287Z,100239.66
2022-11-25T03:43:41.636Z,100241.97
2022-11-25T03:45:46.203Z,100242.84
2022-11-25T03:47:50.706Z,100243.34
2022-11-25T03:49:55.083Z,100247.88
2022-11-25T03:51:59.451Z,100249.28
2022-11-25T03:54:03.845Z,100248.33
2022-11-25T03:56:08.201Z,100248.59
2022-11-25T03:58:12.756Z,100251.03
2022-11-25T04:00:17.204Z,100253.81
2022-11-25T04:02:21.720Z,100250.3
2022-11-25T04:04:26.191Z,100251.75
2022-11-25T04:06:30.552Z,100250.38
2022-11-25T04:08:34.903Z,100254.73
2022-11-25T04:10:39.277Z,100256.31
2022-11-25T04:12:43.603Z,100258
2022-11-25T04:14:48.083Z,100257.13
2022-11-25T04:16:52.612Z,100252.16
2022-11-25T04:18:57.349Z,100257.73
2022-11-25T04:21:01.684Z,100252.45
2022-11-25T04:23:06.046Z,100257.18
2022-11-25T04:25:10.401Z,100255.98
2022-11-25T04:27:14.735Z,100255.23
2022-11-25T04:29:19.101Z,100252.52
2022-11-25T04:31:23.441Z,100252.38
2022-11-25T04:33:27.809Z,100253.3
2022-11-25T04:35:32.134Z,100252.39
2022-11-25T04:37:36.501Z,100253.42
2022-11-25T04:39:40.893Z,100251.42
2022-11-25T04:41:45.283Z,100254.64
2022-11-25T04:43:49.642Z,100251.95
2022-11-25T04:46:24.153Z,100256.48
2022-11-25T04:48:28.591Z,100256.22
2022-11-25T04:50:32.953Z,100258.65
2022-11-25T04:52:37.275Z,100258.14
2022-11-25T04:54:41.620Z,100259.33
2022-11-25T04:56:46.007Z,100259.18
2022-11-25T04:58:50.336Z,100259.45
2022-11-25T05:00:54.871Z,100261.68
2022-11-25T05:02:59.295Z,100260.82
2022-11-25T05:05:03.693Z,100258.4
2022-11-25T05:07:08.063Z,100257.38
2022-11-25T05:09:12.544Z,100253.81
2022-11-25T05:11:16.904Z,100255.35
2022-11-25T05:13:21.270Z,100251.78
2022-11-25T05:15:25.633Z,100245.03
2022-11-25T05:17:30.024Z,100245.59
2022-11-25T05:19:34.359Z,100256.84
2022-11-25T05:21:38.720Z,100263.72
2022-11-25T05:23:43.063Z,100263.3
2022-11-25T05:25:47.399Z,100263.97
2022-11-25T05:27:51.756Z,100267.13
2022-11-25T05:29:57.368Z,100269.7
2022-11-25T05:32:01.718Z,100276.64
2022-11-25T05:34:06.097Z,100283.03
2022-11-25T05:36:10.498Z,100284.28
2022-11-25T05:38:14.844Z,100279.44
2022-11-25T05:40:19.193Z,100281.02
2022-11-25T05:42:23.587Z,100284.16
2022-11-25T05:44:27.925Z,100284.83
2022-11-25T05:46:32.529Z,100288.84
2022-11-25T05:48:37.181Z,100288.36
2022-11-25T05:50:41.558Z,100289.78
2022-11-25T05:52:45.926Z,100286.01
2022-11-25T05:54:57.513Z,100292.73
2022-11-25T05:57:02.072Z,100296.17
2022-11-25T05:59:06.459Z,100298.34
2022-11-25T06:01:10.851Z,100300.96
2022-11-25T06:03:15.590Z,100304.08
2022-11-25T06:05:20.190Z,100300.98
2022-11-25T06:07:24.746Z,100298.13
2022-11-25T06:09:29.254Z,100297
2022-11-25T06:11:33.628Z,100296.61
2022-11-25T06:13:37.963Z,100303.55
2022-11-25T06:15:42.460Z,100299.84
2022-11-25T06:17:46.877Z,100302.2
2022-11-25T06:19:51.260Z,100311.16
2022-11-25T06:21:55.683Z,100312.77
2022-11-25T06:24:00.055Z,100305.66
2022-11-25T06:26:04.405Z,100308.89
2022-11-25T06:28:15.962Z,100307.88
2022-11-25T06:30:20.787Z,100313.7
2022-11-25T06:32:25.156Z,100317.16
2022-11-25T06:34:29.501Z,100310.69
2022-11-25T06:36:33.833Z,100312.45
2022-11-25T06:38:38.209Z,100313.59
2022-11-25T06:40:42.598Z,100316.64
2022-11-25T06:42:46.981Z,100316.52
2022-11-25T06:44:51.527Z,100321.64
2022-11-25T06:46:56.115Z,100321.31
2022-11-25T06:49:00.605Z,100323.42
2022-11-25T06:51:04.978Z,100320.78
2022-11-25T06:53:09.345Z,100324.04
2022-11-25T06:55:13.657Z,100326.8
2022-11-25T06:57:18.024Z,100326.26
2022-11-25T06:59:22.399Z,100328.98
2022-11-25T07:01:26.875Z,100331.49
2022-11-25T07:03:31.551Z,100327.8
2022-11-25T07:05:35.929Z,100330.86
2022-11-25T07:07:40.432Z,100333.28
2022-11-25T07:09:44.932Z,100337.53
2022-11-25T07:11:49.304Z,100339.84
2022-11-25T07:13:53.681Z,100340.22
2022-11-25T07:15:58.182Z,100342.53
2022-11-25T07:18:02.628Z,100344.44
2022-11-25T07:20:07.025Z,100345.19
2022-11-25T07:22:11.389Z,100348.45
2022-11-25T07:24:15.787Z,100348.94
2022-11-25T07:26:20.177Z,100350.5
2022-11-25T07:28:24.558Z,100351.84
2022-11-25T07:33:36.858Z,100352.05
2022-11-25T07:35:41.285Z,100361.33
2022-11-25T07:37:45.703Z,100359.13
2022-11-25T07:39:50.167Z,100362.16
2022-11-25T07:41:54.499Z,100357.58
2022-11-25T07:43:58.910Z,100352.93
2022-11-25T07:46:03.369Z,100352.76
2022-11-25T07:48:07.865Z,100352.8
2022-11-25T07:50:12.225Z,100353.34
2022-11-25T07:52:16.571Z,100352.83
2022-11-25T07:54:20.955Z,100356.13
2022-11-25T07:56:25.305Z,100356.81
2022-11-25T07:58:29.718Z,100356.44
2022-11-25T08:00:34.125Z,100361.91
2022-11-25T08:02:38.740Z,100353.95
2022-11-25T08:04:43.284Z,100356.92
2022-11-25T08:06:47.661Z,100352.81
2022-11-25T08:08:52.066Z,100356.24
2022-11-25T08:10:56.455Z,100362.06
2022-11-25T08:13:00.858Z,100364.67
2022-11-25T08:15:05.307Z,100365.33
2022-11-25T08:17:09.692Z,100361.36
2022-11-25T08:19:14.168Z,100364.08
2022-11-25T08:21:18.601Z,100368.7
2022-11-25T08:23:22.993Z,100365.92
2022-11-25T08:25:27.408Z,100369.22
2022-11-25T08:27:31.828Z,100373.16
2022-11-25T08:29:37.055Z,100370.95
2022-11-25T08:31:42.363Z,100371.67
2022-11-25T08:33:47.200Z,100370.73
2022-11-25T08:35:51.663Z,100370.7
2022-11-25T08:37:56.037Z,100374.84
2022-11-25T08:40:01.417Z,100378.01
2022-11-25T08:42:05.946Z,100376.08
2022-11-25T08:44:10.322Z,100382.53
2022-11-25T08:46:14.985Z,100380.73
2022-11-25T08:48:19.849Z,100385.44
2022-11-25T08:50:24.357Z,100386.28
2022-11-25T08:52:28.789Z,100390.2
2022-11-25T08:54:33.293Z,100389.19
2022-11-25T08:56:37.687Z,100393.2
2022-11-25T08:58:42.094Z,100392.86
2022-11-25T09:00:46.514Z,100390.25
2022-11-25T09:02:51.170Z,100391.33
2022-11-25T09:04:55.635Z,100391.64
2022-11-25T09:07:00.158Z,100393.17
2022-11-25T09:09:04.597Z,100394.39
2022-11-25T09:11:09.095Z,100393.34
2022-11-25T09:13:13.569Z,100388.89
2022-11-25T09:15:17.921Z,100392.91
2022-11-25T09:17:22.337Z,100391.38
2022-11-25T09:19:26.688Z,100392.05
2022-11-25T09:21:31.084Z,100397.86
2022-11-25T09:23:35.459Z,100400.58
2022-11-25T09:25:39.840Z,100400.31
2022-11-25T09:27:44.315Z,100398.14
2022-11-25T09:29:48.692Z,100397.13
2022-11-25T09:31:56.255Z,100394.47
2022-11-25T09:34:00.776Z,100391.82
2022-11-25T09:36:05.164Z,100388.77
2022-11-25T09:38:09.608Z,100388.63
2022-11-25T09:40:14.039Z,100390.13
2022-11-25T09:42:18.453Z,100390.92
2022-11-25T09:44:22.863Z,100387.05
2022-11-25T09:46:27.432Z,100384.47
2022-11-25T09:48:31.962Z,100384.4
2022-11-25T09:50:36.314Z,100388.31
2022-11-25T09:52:40.748Z,100388.92
2022-11-25T09:54:45.253Z,100387.9
2022-11-25T09:56:49.626Z,100384.73
2022-11-25T09:58:54.013Z,100383.15
2022-11-25T10:00:58.408Z,100387.1
2022-11-25T10:03:03.112Z,100381.67
2022-11-25T10:05:07.785Z,100378.34
2022-11-25T10:07:12.137Z,100377.53
2022-11-25T10:09:16.499Z,100383.14
2022-11-25T10:11:20.884Z,100378.89
2022-11-25T10:13:25.311Z,100375.67
2022-11-25T10:15:29.695Z,100387.18
2022-11-25T10:17:34.083Z,100377.58
2022-11-25T10:19:39.436Z,100377.06
2022-11-25T10:21:43.934Z,100377.34
2022-11-25T10:23:48.360Z,100379.45
2022-11-25T10:25:52.727Z,100380.13
2022-11-25T10:27:57.076Z,100379.52
2022-11-25T10:30:01.437Z,100377.05
2022-11-25T10:32:05.800Z,100375.83
2022-11-25T10:34:10.260Z,100379.47
2022-11-25T10:36:14.741Z,100383.42
2022-11-25T10:38:20.334Z,100381.72
2022-11-25T10:40:24.725Z,100382.38
2022-11-25T10:42:29.220Z,100382.52
2022-11-25T10:44:33.699Z,100384.77
2022-11-25T10:47:14.214Z,100390.01
2022-11-25T10:49:19.783Z,100391.98
2022-11-25T10:51:24.310Z,100387.27
2022-11-25T10:53:28.632Z,100390.46
2022-11-25T10:55:33.134Z,100396.48
2022-11-25T10:57:37.691Z,100397.75
2022-11-25T10:59:42.065Z,100400.44
2022-11-25T11:01:46.671Z,100400.68
2022-11-25T11:03:51.169Z,100399.7
2022-11-25T11:05:55.584Z,100396.63
2022-11-25T11:08:00.172Z,100397.63
2022-11-25T11:10:04.572Z,100394.25
2022-11-25T11:12:08.970Z,100393.61
2022-11-25T11:14:13.313Z,100394.05
2022-11-25T11:16:17.819Z,100394.15
2022-11-25T11:18:22.489Z,100395.92
2022-11-25T11:20:26.895Z,100394.25
2022-11-25T11:22:31.295Z,100392.45
2022-11-25T11:24:36.575Z,100389.31
2022-11-25T11:26:41.699Z,100389.31
2022-11-25T11:29:14.038Z,100386.73
2022-11-25T11:31:30.889Z,100390.71
2022-11-25T11:33:35.413Z,100390.34
2022-11-25T11:35:43.004Z,100388.44
2022-11-25T11:37:47.402Z,100387.41
2022-11-25T11:39:51.749Z,100388.09
2022-11-25T11:41:56.085Z,100386.5
2022-11-25T11:44:00.495Z,100390
2022-11-25T11:46:04.869Z,100388.94
2022-11-25T11:48:09.286Z,100386.66
2022-11-25T11:50:13.684Z,100387.24
2022-11-25T11:52:18.170Z,100389.05
2022-11-25T11:54:22.588Z,100391.84
2022-11-25T11:56:42.405Z,100390.55
2022-11-25T11:58:46.800Z,100382.99
2022-11-25T12:00:51.122Z,100383.95
2022-11-25T12:02:55.696Z,100388.4
2022-11-25T12:05:00.234Z,100386.84
2022-11-25T12:07:04.632Z,100389.35
2022-11-25T12:09:09.009Z,100387.41
2022-11-25T12:11:13.473Z,100389.77
2022-11-25T12:13:17.844Z,100390.68
2022-11-25T12:15:22.258Z,100389.93
2022-11-25T12:17:26.606Z,100387.24
2022-11-25T12:19:30.989Z,100384.83
2022-11-25T12:21:41.978Z,100384.42
2022-11-25T12:23:46.717Z,100382.61
2022-11-25T12:25:51.115Z,100382.82
2022-11-25T12:27:55.472Z,100383.98
2022-11-25T12:29:59.885Z,100381.49
2022-11-25T12:32:04.562Z,100379.45
2022-11-25T12:34:09.117Z,100387.48
2022-11-25T12:36:13.476Z,100387.07
2022-11-25T12:38:17.915Z,100382.11
2022-11-25T12:40:22.273Z,100386.42
2022-11-25T12:42:26.736Z,100384.35
2022-11-25T12:44:31.133Z,100382.92
2022-11-25T12:46:35.497Z,100386.84
2022-11-25T12:48:39.896Z,100382.61
2022-11-25T12:50:44.313Z,100381.39
2022-11-25T12:52:48.728Z,100380.53
2022-11-25T12:54:53.135Z,100384.52
2022-11-25T12:56:57.520Z,100385.44
2022-11-25T12:59:02.196Z,100387.14
2022-11-25T13:01:07.031Z,100385.71
2022-11-25T13:03:15.046Z,100384.42
2022-11-25T13:05:41.352Z,100383.36
2022-11-25T13:07:46.023Z,100383.67
2022-11-25T13:09:50.584Z,100387.34
2022-11-25T13:11:55.595Z,100389.05
2022-11-25T13:14:01.396Z,100382.34
2022-11-25T13:16:07.525Z,100382.89
2022-11-25T13:18:12.991Z,100385.78
2022-11-25T13:20:17.657Z,100389.35
2022-11-25T13:22:22.098Z,100385.98
2022-11-25T13:24:26.473Z,100389.83
2022-11-25T13:26:30.846Z,100388.16
2022-11-25T13:28:35.258Z,100391.87
2022-11-25T13:30:39.662Z,100392.45
2022-11-25T13:32:44.078Z,100392.78
2022-11-25T13:34:48.488Z,100395.47
2022-11-25T13:36:52.925Z,100394.86
2022-11-25T13:38:57.320Z,100392.34
2022-11-25T13:41:01.685Z,100395.51
2022-11-25T13:43:06.086Z,100392.85
2022-11-25T13:45:10.443Z,100393.56
2022-11-25T13:47:14.882Z,100395.47
2022-11-25T13:49:19.289Z,100395.44
2022-11-25T13:51:23.747Z,100397.28
2022-11-25T13:53:28.261Z,100397.41
2022-11-25T13:55:32.669Z,100398.43
2022-11-25T13:57:37.017Z,100402.65
2022-11-25T13:59:41.469Z,100405.23
2022-11-25T14:01:46.011Z,100406.53
2022-11-25T14:03:50.562Z,100408.7
2022-11-25T14:05:54.937Z,100407.41
2022-11-25T14:07:59.478Z,100411.94
2022-11-25T14:10:03.961Z,100410.44
2022-11-25T14:12:08.309Z,100414.63
2022-11-25T14:14:12.716Z,100411.45
2022-11-25T14:16:17.303Z,100413.4
2022-11-25T14:19:17.221Z,100415.2
2022-11-25T14:21:54.236Z,100416.9
2022-11-25T14:23:58.612Z,100415.98
2022-11-25T14:26:16.260Z,100421.05
2022-11-25T14:28:52.715Z,100419.99
2022-11-25T14:30:57.096Z,100422.27
2022-11-25T14:33:01.484Z,100418.73
2022-11-25T14:35:05.902Z,100420.16
2022-11-25T14:37:10.279Z,100420.47
2022-11-25T14:39:14.690Z,100423.13
2022-11-25T14:41:19.084Z,100426.05
2022-11-25T14:43:23.453Z,100430.27
2022-11-25T14:45:28.005Z,100432.25
2022-11-25T14:47:39.301Z,100430.1
2022-11-25T14:50:05.640Z,100435.17
2022-11-25T14:52:38.379Z,100439.77
2022-11-25T14:54:42.789Z,100439.97
2022-11-25T14:56:47.192Z,100443.64
2022-11-25T14:58:51.569Z,100440.2
2022-11-25T15:00:55.962Z,100442.04
2022-11-25T15:03:00.358Z,100443.73
2022-11-25T15:05:04.754Z,100441.56
2022-11-25T15:07:09.212Z,100443.06
2022-11-25T15:09:13.706Z,100443.19
2022-11-25T15:11:18.117Z,100445.33
2022-11-25T15:13:22.520Z,100445.06
2022-11-25T15:15:26.891Z,100448.33
2022-11-25T15:17:31.385Z,100444.55
2022-11-25T15:19:37.316Z,100447.03
2022-11-25T15:22:24.432Z,100445.09
2022-11-25T15:24:29.122Z,100448.43
2022-11-25T15:26:33.474Z,100448.94
2022-11-25T15:28:37.895Z,100446.11
2022-11-25T15:30:42.281Z,100444.61
2022-11-25T15:32:46.708Z,100451.25
2022-11-25T15:34:51.134Z,100447.47
2022-11-25T15:36:55.867Z,100448.14
2022-11-25T15:39:00.303Z,100446.27
2022-11-25T15:41:04.796Z,100446.88
2022-11-25T15:43:09.194Z,100446.02
2022-11-25T15:45:13.565Z,100448.17
2022-11-25T15:47:17.942Z,100448.55
2022-11-25T15:49:22.345Z,100453.69
2022-11-25T15:51:26.745Z,100448.92
2022-11-25T15:53:34.443Z,100451.98
2022-11-25T15:55:38.827Z,100447.42
2022-11-25T15:57:43.134Z,100454.91
2022-11-25T15:59:47.527Z,100455.02
2022-11-25T16:01:52.134Z,100451.23
2022-11-25T16:03:56.821Z,100452.93
2022-11-25T16:06:01.180Z,100459.67
2022-11-25T16:08:05.548Z,100457.89
2022-11-25T16:10:09.964Z,100452.48
2022-11-25T16:12:14.349Z,100459.83
2022-11-25T16:14:19.021Z,100459.11
2022-11-25T16:16:23.607Z,100458.32
2022-11-25T16:18:41.665Z,100462.3
2022-11-25T16:20:46.360Z,100462.71
2022-11-25T16:22:50.748Z,100464.66
2022-11-25T16:25:03.129Z,100470.1
2022-11-25T16:27:07.925Z,100471.94
2022-11-25T16:29:12.497Z,100474.36
2022-11-25T16:31:17.084Z,100479.91
2022-11-25T16:33:21.582Z,100473.25
2022-11-25T16:35:26.072Z,100468.72
2022-11-25T16:37:30.471Z,100475.84
2022-11-25T16:39:35.180Z,100475.88
2022-11-25T16:41:40.318Z,100476.09
2022-11-25T16:43:44.668Z,100476.02
2022-11-25T16:45:49.184Z,100473.88
2022-11-25T16:47:53.613Z,100477.08
2022-11-25T16:49:57.979Z,100475.48
2022-11-25T16:52:02.422Z,100482.39
2022-11-25T16:54:06.799Z,100477.62
2022-11-25T16:56:11.234Z,100476.4
2022-11-25T16:58:15.660Z,100479.32
2022-11-25T17:00:20.000Z,100478.41
2022-11-25T17:02:24.844Z,100477.35
2022-11-25T17:04:29.639Z,100477.05
2022-11-25T17:06:34.055Z,100476.33
2022-11-25T17:08:38.448Z,100483.38
2022-11-25T17:10:42.813Z,100483.28
2022-11-25T17:12:47.251Z,100481.55
2022-11-25T17:14:51.913Z,100483.92
2022-11-25T17:16:56.808Z,100485.7
2022-11-25T17:19:01.647Z,100485.19
2022-11-25T17:21:06.245Z,100490.36
2022-11-25T17:23:10.723Z,100495
2022-11-25T17:25:15.123Z,100498.5
2022-11-25T17:27:19.554Z,100500.14
2022-11-25T17:29:23.956Z,100497.23
2022-11-25T17:31:28.506Z,100496.83
2022-11-25T17:33:32.990Z,100501.28
2022-11-25T17:35:37.392Z,100498.95
2022-11-25T17:37:41.791Z,100499.94
2022-11-25T17:39:46.189Z,100501.23
2022-11-25T17:41:50.565Z,100507.19
2022-11-25T17:43:55.012Z,100499.93
2022-11-25T17:45:59.796Z,100497.41
2022-11-25T17:48:04.465Z,100499.48
2022-11-25T17:50:08.874Z,100501.13
2022-11-25T17:52:13.241Z,100501.81
2022-11-25T17:54:17.775Z,100502.32
2022-11-25T17:56:22.152Z,100504.44
2022-11-25T17:58:26.572Z,100505.12
2022-11-25T18:00:30.963Z,100501.5
2022-11-25T18:02:35.483Z,100505.69
2022-11-25T18:04:40.588Z,100505.41
2022-11-25T18:06:45.081Z,100506.42
2022-11-25T18:08:49.503Z,100513.06
2022-11-25T18:10:53.937Z,100514.25
2022-11-25T18:12:58.324Z,100513.44
2022-11-25T18:15:02.702Z,100517.32
2022-11-25T18:17:07.280Z,100517.66
2022-11-25T18:19:11.727Z,100515.09
2022-11-25T18:21:16.122Z,100517.2
2022-11-25T18:23:20.641Z,100516.86
2022-11-25T18:25:25.095Z,100518.39
2022-11-25T18:27:29.456Z,100518.35
2022-11-25T18:29:33.857Z,100518.36
2022-11-25T18:31:38.263Z,100520.38
2022-11-25T18:33:42.654Z,100521.13
2022-11-25T18:35:47.096Z,100522.39
2022-11-25T18:37:51.463Z,100527.61
2022-11-25T18:39:55.858Z,100527.13
2022-11-25T18:42:00.241Z,100532.21
2022-11-25T18:44:04.688Z,100535.69
2022-11-25T18:46:09.168Z,100539.95
2022-11-25T18:48:13.637Z,100544.25
2022-11-25T18:50:18.008Z,100547.35
2022-11-25T18:52:22.374Z,100549.13
2022-11-25T18:54:26.774Z,100551.34
2022-11-25T18:56:31.132Z,100553.02
2022-11-25T18:58:35.500Z,100549.63
2022-11-25T19:00:39.879Z,100555.83
2022-11-25T19:02:44.399Z,100554.23
2022-11-25T19:04:48.820Z,100555.45
2022-11-25T19:06:53.232Z,100559.22
2022-11-25T19:08:57.567Z,100558.23
2022-11-25T19:11:01.988Z,100568.65
2022-11-25T19:13:06.339Z,100573.02
2022-11-25T19:15:10.676Z,100566.55
2022-11-25T19:17:20.594Z,100573.86
2022-11-25T19:19:24.969Z,100566.11
2022-11-25T19:21:29.394Z,100567.89
2022-11-25T19:23:33.738Z,100565.95
2022-11-25T19:25:38.121Z,100566.44
2022-11-25T19:27:42.519Z,100563.68
2022-11-25T19:29:46.892Z,100567.91
2022-11-25T19:31:51.372Z,100571.86
2022-11-25T19:33:55.781Z,100577.74
2022-11-25T19:36:00.135Z,100582.05
2022-11-25T19:38:04.557Z,100571
2022-11-25T19:40:08.930Z,100578.14
2022-11-25T19:42:13.298Z,100581.69
2022-11-25T19:44:17.690Z,100580.57
2022-11-25T19:46:41.131Z,100581.39
2022-11-25T19:49:17.601Z,100583.2
2022-11-25T19:51:21.949Z,100591.48
2022-11-25T19:53:33.998Z,100591.94
2022-11-25T19:55:38.817Z,100593.41
2022-11-25T19:57:43.203Z,100592.89
2022-11-25T19:59:47.549Z,100595.52
2022-11-25T20:01:52.082Z,100597.84
2022-11-25T20:03:56.628Z,100592.42
2022-11-25T20:06:00.972Z,100592.19
2022-11-25T20:08:05.397Z,100592.12
2022-11-25T20:10:09.783Z,100597.5
2022-11-25T20:12:14.503Z,100596.48
2022-11-25T20:14:18.914Z,100597.19
2022-11-25T20:16:23.503Z,100602.71
2022-11-25T20:18:28.093Z,100601.83
2022-11-25T20:20:32.616Z,100601.63
2022-11-25T20:22:37.026Z,100604.14
2022-11-25T20:24:41.424Z,100605.41
2022-11-25T20:26:45.798Z,100612.48
2022-11-25T20:28:50.219Z,100607.65
2022-11-25T20:32:20.077Z,100624.49
2022-11-25T20:34:24.600Z,100630.27
2022-11-25T20:36:29.006Z,100631.36
2022-11-25T20:38:33.418Z,100630
2022-11-25T20:40:37.795Z,100638.55
2022-11-25T20:42:42.167Z,100637.59
2022-11-25T20:44:46.552Z,100641.58
2022-11-25T20:46:50.896Z,100646.47
2022-11-25T20:48:55.477Z,100648.14
2022-11-25T20:51:00.044Z,100653.05
2022-11-25T20:53:04.443Z,100651.68
2022-11-25T20:55:08.820Z,100657.94
2022-11-25T20:57:13.197Z,100660.25
2022-11-25T20:59:17.540Z,100665.16
2022-11-25T21:01:22.086Z,100665.31
2022-11-25T21:03:26.573Z,100669.56
2022-11-25T21:05:30.976Z,100670.21
2022-11-25T21:07:35.512Z,100672.94
2022-11-25T21:09:40.018Z,100675.34
2022-11-25T21:11:44.444Z,100677.65
2022-11-25T21:13:48.811Z,100681.56
2022-11-25T21:15:53.391Z,100686.63
2022-11-25T21:17:57.949Z,100686.05
2022-11-25T21:20:02.376Z,100684.2
2022-11-25T21:22:06.804Z,100686.41
2022-11-25T21:24:11.203Z,100690.86
2022-11-25T21:26:15.618Z,100683.7
2022-11-25T21:28:19.994Z,100686.86
2022-11-25T21:30:24.398Z,100687.61
2022-11-25T21:32:28.821Z,100686.75
2022-11-25T21:34:33.219Z,100693.36
2022-11-25T21:36:37.632Z,100690.36
2022-11-25T21:38:42.056Z,100691.48
2022-11-25T21:40:46.416Z,100692.81
2022-11-25T21:42:50.838Z,100695.91
2022-11-25T21:44:55.230Z,100696.06
2022-11-25T21:46:59.610Z,100701.36
2022-11-25T21:49:03.992Z,100698.45
2022-11-25T21:51:08.436Z,100699.3
2022-11-25T21:53:13.002Z,100701.82
2022-11-25T21:55:17.472Z,100709.2
2022-11-25T21:57:21.892Z,100704.7
2022-11-25T21:59:26.388Z,100707.91
2022-11-25T22:01:30.952Z,100708.92
2022-11-25T22:03:35.501Z,100710.91
2022-11-25T22:05:39.856Z,100711.2
2022-11-25T22:07:44.420Z,100709.75
2022-11-25T22:09:48.900Z,100710.82
2022-11-25T22:11:53.264Z,100708.13
2022-11-25T22:13:57.637Z,100707.2
2022-11-25T22:16:02.167Z,100710.89
2022-11-25T22:18:06.665Z,100711.67
2022-11-25T22:20:11.060Z,100708.72
2022-11-25T22:22:15.428Z,100716.06
2022-11-25T22:24:19.838Z,100724.47
2022-11-25T22:26:24.236Z,100720.2
2022-11-25T22:28:28.627Z,100710.01
2022-11-25T22:30:32.993Z,100711.72
2022-11-25T22:32:37.369Z,100715.09
2022-11-25T22:34:41.986Z,100714.83
2022-11-25T22:36:46.371Z,100709.77
2022-11-25T22:38:50.779Z,100710.73
2022-11-25T22:40:55.223Z,100715.98
2022-11-25T22:42:59.645Z,100723.03
2022-11-25T22:45:04.060Z,100726.74
2022-11-25T22:47:08.433Z,100731.39
2022-11-25T22:49:12.804Z,100728.88
2022-11-25T22:51:17.304Z,100731.7
2022-11-25T22:53:21.676Z,100732.77
2022-11-25T22:55:26.096Z,100738.73
2022-11-25T22:57:30.489Z,100739.73
2022-11-25T22:59:34.869Z,100739.11
2022-11-25T23:01:39.371Z,100742.52
2022-11-25T23:03:43.808Z,100742.23
2022-11-25T23:05:48.226Z,100747.53
2022-11-25T23:07:52.924Z,100750.7
2022-11-25T23:09:57.420Z,100756.3
2022-11-25T23:12:01.806Z,100756.43
2022-11-25T23:14:06.174Z,100755.42
2022-11-25T23:16:10.683Z,100759.14
2022-11-25T23:18:15.198Z,100759.22
2022-11-25T23:20:19.567Z,100757.3
2022-11-25T23:22:23.958Z,100761.28
2022-11-25T23:24:28.327Z,100758.13
2022-11-25T23:26:36.118Z,100757.55
2022-11-25T23:28:40.536Z,100760.99
2022-11-25T23:30:44.888Z,100762.81
2022-11-25T23:32:49.304Z,100760.31
2022-11-25T23:34:53.692Z,100769.53
2022-11-25T23:36:58.129Z,100773.58
2022-11-25T23:39:02.513Z,100770.59
2022-11-25T23:41:06.894Z,100775.61
2022-11-25T23:43:11.257Z,100775.58
2022-11-25T23:45:15.648Z,100773.65
2022-11-25T23:47:19.984Z,100780.46
2022-11-25T23:49:24.432Z,100770.43
2022-11-25T23:51:28.803Z,100770.08
2022-11-25T23:53:33.204Z,100774.09
2022-11-25T23:55:37.641Z,100772.45
2022-11-25T23:57:42.112Z,100772.27